createdAt,value
2023-04-17T00:02:15.938Z,101768.31
2023-04-17T00:07:22.910Z,101772.63
2023-04-17T00:12:30.218Z,101772.58
2023-04-17T00:17:35.855Z,101774.24
2023-04-17T00:22:41.516Z,101769.84
2023-04-17T00:27:47.193Z,101773.88
2023-04-17T00:32:52.841Z,101768.41
2023-04-17T00:37:58.388Z,101770.80
2023-04-17T00:43:05.309Z,101769.88
2023-04-17T00:48:13.254Z,101767.08
2023-04-17T00:53:19.601Z,101776.58
2023-04-17T00:58:25.686Z,101781.06
2023-04-17T01:03:33.393Z,101779.63
2023-04-17T01:08:42.145Z,101779.13
2023-04-17T01:13:51.599Z,101779.95
2023-04-17T01:18:57.787Z,101781.47
2023-04-17T01:24:07.118Z,101780.92
2023-04-17T01:29:12.903Z,101787.19
2023-04-17T01:34:18.724Z,101791.09
2023-04-17T01:39:24.820Z,101790.17
2023-04-17T01:44:30.401Z,101798.74
2023-04-17T01:49:35.834Z,101798.83
2023-04-17T01:54:41.348Z,101802.41
2023-04-17T01:59:46.792Z,101798.58
2023-04-17T02:04:52.673Z,101796.00
2023-04-17T02:09:58.181Z,101800.83
2023-04-17T02:15:03.755Z,101800.12
2023-04-17T02:20:10.725Z,101801.86
2023-04-17T02:25:16.321Z,101801.12
2023-04-17T02:30:21.877Z,101806.65
2023-04-17T02:35:29.375Z,101806.40
2023-04-17T02:40:35.156Z,101815.08
2023-04-17T02:45:40.772Z,101812.63
2023-04-17T02:50:46.353Z,101811.84
2023-04-17T02:55:53.553Z,101815.12
2023-04-17T03:01:03.570Z,101818.12
2023-04-17T03:06:10.896Z,101821.14
2023-04-17T03:11:16.410Z,101827.14
2023-04-17T03:16:21.982Z,101824.30
2023-04-17T03:21:27.790Z,101824.84
2023-04-17T03:26:33.471Z,101822.70
2023-04-17T03:31:40.873Z,101828.14
2023-04-17T03:36:46.741Z,101833.84
2023-04-17T03:41:52.360Z,101836.38
2023-04-17T03:46:58.029Z,101841.70
2023-04-17T03:52:04.158Z,101844.52
2023-04-17T03:57:10.326Z,101854.78
2023-04-17T04:02:17.046Z,101848.38
2023-04-17T04:07:22.661Z,101856.11
2023-04-17T04:12:28.573Z,101854.32
2023-04-17T04:17:34.568Z,101862.54
2023-04-17T04:22:41.708Z,101857.14
2023-04-17T04:27:49.164Z,101864.30
2023-04-17T04:32:57.079Z,101867.72
2023-04-17T04:38:03.086Z,101867.94
2023-04-17T04:43:09.762Z,101870.60
2023-04-17T04:48:19.784Z,101877.98
2023-04-17T04:53:25.481Z,101882.51
2023-04-17T04:58:32.780Z,101881.55
2023-04-17T05:03:40.749Z,101884.56
2023-04-17T05:08:47.410Z,101883.05
2023-04-17T05:13:53.210Z,101884.48
2023-04-17T05:19:06.374Z,101888.33
2023-04-17T05:24:27.382Z,101900.99
2023-04-17T05:29:33.177Z,101910.73
2023-04-17T05:34:38.978Z,101915.22
2023-04-17T05:39:46.431Z,101918.59
2023-04-17T05:44:52.022Z,101918.48
2023-04-17T05:49:58.860Z,101920.12
2023-04-17T05:55:06.529Z,101932.38
2023-04-17T06:00:14.176Z,101935.98
2023-04-17T06:05:24.686Z,101934.22
2023-04-17T06:10:33.808Z,101930.69
2023-04-17T06:15:39.586Z,101930.09
2023-04-17T06:20:47.027Z,101937.45
2023-04-17T06:25:53.038Z,101939.34
2023-04-17T06:30:59.071Z,101944.72
2023-04-17T06:36:11.310Z,101947.16
2023-04-17T06:41:27.266Z,101946.75
2023-04-17T06:46:33.009Z,101946.97
2023-04-17T06:51:40.494Z,101954.73
2023-04-17T06:56:45.968Z,101962.87
2023-04-17T07:01:52.734Z,101962.91
2023-04-17T07:06:58.782Z,101967.56
2023-04-17T07:12:04.349Z,101971.70
2023-04-17T07:17:10.023Z,101975.39
2023-04-17T07:22:15.785Z,101983.41
2023-04-17T07:27:21.941Z,101987.38
2023-04-17T07:32:28.527Z,101997.13
2023-04-17T07:37:37.174Z,102001.66
2023-04-17T07:42:45.740Z,102001.66
2023-04-17T07:47:53.416Z,102006.36
2023-04-17T07:52:59.412Z,102001.93
2023-04-17T07:58:06.470Z,102001.34
2023-04-17T08:03:13.946Z,102016.13
2023-04-17T08:08:20.163Z,102011.03
2023-04-17T08:13:27.776Z,102012.90
2023-04-17T08:18:33.749Z,102014.38
2023-04-17T08:23:40.704Z,102027.06
2023-04-17T08:28:46.640Z,102017.81
2023-04-17T08:33:59.480Z,102028.07
2023-04-17T08:39:15.457Z,102035.98
2023-04-17T08:44:22.776Z,102040.42
2023-04-17T08:49:31.912Z,102046.30
2023-04-17T08:54:38.475Z,102043.28
2023-04-17T08:59:44.135Z,102042.17
2023-04-17T09:04:49.874Z,102035.51
2023-04-17T09:09:57.588Z,102042.79
2023-04-17T09:15:06.231Z,102050.83
2023-04-17T09:20:12.599Z,102050.11
2023-04-17T09:25:19.876Z,102044.18
2023-04-17T09:30:27.182Z,102049.70
2023-04-17T09:35:39.388Z,102051.55
2023-04-17T09:40:45.438Z,102055.12
2023-04-17T09:45:52.433Z,102060.23
2023-04-17T09:50:58.494Z,102067.69
2023-04-17T09:56:05.801Z,102055.88
2023-04-17T10:01:13.009Z,102055.24
2023-04-17T10:06:18.852Z,102067.87
2023-04-17T10:11:27.499Z,102064.25
2023-04-17T10:16:40.596Z,102066.11
2023-04-17T10:21:48.113Z,102076.12
2023-04-17T10:26:53.701Z,102073.67
2023-04-17T10:32:14.248Z,102080.06
2023-04-17T10:37:21.828Z,102088.08
2023-04-17T10:42:28.957Z,102078.31
2023-04-17T10:47:36.206Z,102072.44
2023-04-17T10:52:44.825Z,102067.55
2023-04-17T10:57:56.106Z,102077.48
2023-04-17T11:03:05.679Z,102079.50
2023-04-17T11:08:12.113Z,102082.92
2023-04-17T11:13:17.679Z,102084.37
2023-04-17T11:18:23.321Z,102084.53
2023-04-17T11:23:34.111Z,102089.94
2023-04-17T11:28:39.706Z,102093.09
2023-04-17T11:33:45.384Z,102098.51
2023-04-17T11:38:51.169Z,102103.88
2023-04-17T11:43:56.830Z,102105.71
2023-04-17T11:49:03.959Z,102100.40
2023-04-17T11:54:09.527Z,102116.99
2023-04-17T11:59:15.097Z,102124.63
2023-04-17T12:04:31.056Z,102120.64
2023-04-17T12:09:37.541Z,102118.13
2023-04-17T12:14:43.160Z,102124.16
2023-04-17T12:19:48.749Z,102118.26
2023-04-17T12:24:57.428Z,102115.44
2023-04-17T12:30:03.128Z,102116.35
2023-04-17T12:35:08.804Z,102116.06
2023-04-17T12:40:18.181Z,102109.88
2023-04-17T12:45:24.223Z,102110.13
2023-04-17T12:50:29.787Z,102114.59
2023-04-17T12:55:35.537Z,102110.98
2023-04-17T13:00:44.117Z,102119.37
2023-04-17T13:05:52.158Z,102120.65
2023-04-17T13:10:57.817Z,102120.00
2023-04-17T13:16:03.507Z,102120.73
2023-04-17T13:21:09.417Z,102120.33
2023-04-17T13:26:14.968Z,102120.33
2023-04-17T13:31:20.533Z,102117.52
2023-04-17T13:36:26.546Z,102127.63
2023-04-17T13:41:35.284Z,102120.28
2023-04-17T13:46:41.790Z,102124.29
2023-04-17T13:51:47.617Z,102124.21
2023-04-17T13:56:55.263Z,102118.03
2023-04-17T14:02:02.743Z,102116.92
2023-04-17T14:07:08.507Z,102121.26
2023-04-17T14:12:15.583Z,102123.77
2023-04-17T14:17:21.170Z,102111.47
2023-04-17T14:22:27.667Z,102117.68
2023-04-17T14:27:34.459Z,102112.95
2023-04-17T14:32:40.379Z,102110.45
2023-04-17T14:37:45.959Z,102114.97
2023-04-17T14:42:54.666Z,102111.09
2023-04-17T14:48:01.421Z,102116.37
2023-04-17T14:53:07.454Z,102114.84
2023-04-17T14:58:14.687Z,102109.94
2023-04-17T15:03:20.329Z,102113.48
2023-04-17T15:08:26.445Z,102108.67
2023-04-17T15:13:32.161Z,102108.37
2023-04-17T15:18:39.520Z,102111.87
2023-04-17T15:23:46.321Z,102105.69
2023-04-17T15:28:53.274Z,102107.67
2023-04-17T15:34:02.208Z,102102.53
2023-04-17T15:39:07.877Z,102101.55
2023-04-17T15:44:13.432Z,102107.50
2023-04-17T15:49:19.092Z,102107.50
2023-04-17T15:54:24.629Z,102106.52
2023-04-17T15:59:32.103Z,102108.48
2023-04-17T16:04:39.567Z,102108.25
2023-04-17T16:09:46.689Z,102113.65
2023-04-17T16:14:52.173Z,102112.58
2023-04-17T16:19:58.274Z,102121.68
2023-04-17T16:25:03.988Z,102115.19
2023-04-17T16:30:11.156Z,102120.94
2023-04-17T16:35:17.296Z,102131.22
2023-04-17T16:40:23.593Z,102131.93
2023-04-17T16:45:29.163Z,102127.58
2023-04-17T16:50:34.673Z,102131.00
2023-04-17T16:55:40.500Z,102137.33
2023-04-17T17:00:46.024Z,102140.62
2023-04-17T17:05:51.710Z,102148.91
2023-04-17T17:10:57.204Z,102150.30
2023-04-17T17:16:02.990Z,102147.84
2023-04-17T17:21:08.620Z,102153.03
2023-04-17T17:26:14.134Z,102159.46
2023-04-17T17:31:20.174Z,102166.56
2023-04-17T17:36:26.382Z,102163.72
2023-04-17T17:41:31.885Z,102170.64
2023-04-17T17:46:37.503Z,102179.48
2023-04-17T17:51:44.711Z,102185.88
2023-04-17T17:57:06.320Z,102183.86
2023-04-17T18:02:11.981Z,102185.51
2023-04-17T18:07:17.527Z,102197.32
2023-04-17T18:12:23.482Z,102201.70
2023-04-17T18:17:29.141Z,102203.19
2023-04-17T18:22:35.367Z,102202.27
2023-04-17T18:27:41.087Z,102204.89
2023-04-17T18:32:46.581Z,102212.55
2023-04-17T18:37:53.157Z,102218.62
2023-04-17T18:42:58.770Z,102220.66
2023-04-17T18:48:04.472Z,102229.91
2023-04-17T18:53:10.118Z,102234.06
2023-04-17T18:58:15.757Z,102231.06
2023-04-17T19:03:21.292Z,102239.02
2023-04-17T19:08:26.873Z,102240.95
2023-04-17T19:13:32.613Z,102245.81
2023-04-17T19:18:38.132Z,102236.41
2023-04-17T19:23:44.081Z,102249.84
2023-04-17T19:28:49.665Z,102242.45
2023-04-17T19:33:56.772Z,102239.41
2023-04-17T19:39:08.702Z,102241.13
2023-04-17T19:44:14.415Z,102241.84
2023-04-17T19:49:19.880Z,102241.17
2023-04-17T19:54:25.571Z,102244.80
2023-04-17T19:59:31.206Z,102248.48
2023-04-17T20:04:36.646Z,102250.31
2023-04-17T20:09:42.313Z,102250.52
2023-04-17T20:14:49.963Z,102256.58
2023-04-17T20:19:55.520Z,102257.75
2023-04-17T20:25:00.960Z,102252.02
2023-04-17T20:30:07.053Z,102259.34
2023-04-17T20:35:12.793Z,102258.03
2023-04-17T20:40:18.837Z,102257.95
2023-04-17T20:45:30.570Z,102259.58
2023-04-17T20:50:37.154Z,102254.53
2023-04-17T20:55:42.751Z,102256.87
2023-04-17T21:05:55.666Z,102257.81
2023-04-17T21:11:01.429Z,102260.16
2023-04-17T21:16:08.725Z,102255.06
2023-04-17T21:21:14.274Z,102266.55
2023-04-17T21:26:19.832Z,102267.80
2023-04-17T21:31:25.732Z,102266.66
2023-04-17T21:36:31.550Z,102266.12
2023-04-17T21:41:37.173Z,102265.65
2023-04-17T21:46:47.101Z,102263.90
2023-04-17T21:51:53.746Z,102263.63
2023-04-17T21:56:59.529Z,102259.39
2023-04-17T22:02:05.626Z,102264.63
2023-04-17T22:07:11.308Z,102265.59
2023-04-17T22:12:19.977Z,102268.59
2023-04-17T22:17:25.685Z,102272.14
2023-04-17T22:22:31.469Z,102270.16
2023-04-17T22:27:37.006Z,102275.42
2023-04-17T22:32:42.650Z,102286.94
2023-04-17T22:37:48.398Z,102286.14
2023-04-17T22:43:00.706Z,102285.67
2023-04-17T22:48:06.854Z,102286.83
2023-04-17T22:53:12.499Z,102293.66
2023-04-17T22:58:18.113Z,102295.14
2023-04-17T23:03:24.053Z,102293.27
2023-04-17T23:08:31.583Z,102287.97
2023-04-17T23:13:37.057Z,102291.44
2023-04-17T23:18:42.798Z,102290.22
2023-04-17T23:23:48.585Z,102296.47
2023-04-17T23:28:54.433Z,102291.02
2023-04-17T23:34:00.172Z,102289.24
2023-04-17T23:39:05.953Z,102289.98
2023-04-17T23:44:11.893Z,102282.69
2023-04-17T23:49:17.686Z,102292.02
2023-04-17T23:54:23.213Z,102286.09
2023-04-17T23:59:28.816Z,102287.95
